Eurofaith — D5ND2 — position and weather

sailwx.info

Track history (hours):
 
Tides and Currents Weather Stations Pressure Air Temp Water Temp Dewpoint Dewpoint Depression Visibility Wind Speed Wind Dir Waves Ship Positions

Eurofaith

Last reported at 2018-Jun-18 22:41 UTC. Time now 2018-Jul-21 03:50 UTC.
Position N 01°40' E 102°54'.
Warning: this ship's position is 32 days out of date.

Length 269 m; draft 9.2 m.

Type: Tanker. MMSI: 636017877.

Date/timePositionNaut miles runAvg speedWind from/ knotsBaromVisibWave heightAir tempDewpointWater temp
2018-Jun-18 22:41N 01°40' E 102°54'414.2
2018-Jun-18 22:23N 01°38' E 102°58'1114.2
2018-Jun-18 21:37N 01°31' E 103°07'314.0
2018-Jun-18 21:25N 01°29' E 103°09'714.5
2018-Jun-18 20:56N 01°25' E 103°14'614.1
2018-Jun-18 20:30N 01°20' E 103°18'612.5
2018-Jun-18 19:59N 01°16' E 103°23'611.8
2018-Jun-18 19:30N 01°13' E 103°28'611.8
2018-Jun-18 19:00N 01°12' E 103°34'611.6
2018-Jun-18 18:31N 01°11' E 103°39'611.9
2018-Jun-18 17:59N 01°09' E 103°45'613.2
2018-Jun-18 17:30N 01°12' E 103°51'4 8.3
2018-Jun-18 17:00N 01°15' E 103°54'1 2.0
2018-Jun-18 16:29N 01°14' E 103°53'0 0.0
2018-Jun-18 15:59N 01°14' E 103°53'0 0.0
2018-Jun-18 15:19N 01°14' E 103°53'0 0.0
2018-Jun-18 14:56N 01°14' E 103°53'0 0.1
2018-Jun-18 14:26N 01°14' E 103°53'0 0.1
2018-Jun-18 13:58N 01°14' E 103°53'0 0.0
2018-Jun-18 13:29N 01°14' E 103°53'0 0.0
2018-Jun-18 12:53N 01°14' E 103°53'0 0.1
2018-Jun-18 12:29N 01°15' E 103°53'0 0.0
2018-Jun-18 11:59N 01°15' E 103°53'0 0.0
2018-Jun-18 11:23N 01°15' E 103°53'0 0.0
2018-Jun-18 10:56N 01°15' E 103°53'0 0.0
2018-Jun-18 10:29N 01°15' E 103°53'0 0.1
2018-Jun-18 09:59N 01°14' E 103°53'0 0.1
2018-Jun-18 09:26N 01°14' E 103°53'0 0.0
2018-Jun-18 08:52N 01°14' E 103°53'0 0.1
2018-Jun-18 08:23N 01°15' E 103°53'0 0.0
2018-Jun-18 07:56N 01°15' E 103°53'0 0.0
2018-Jun-18 07:29N 01°15' E 103°53'0 0.2
2018-Jun-18 06:58N 01°14' E 103°53'0 0.1
2018-Jun-18 06:25N 01°14' E 103°53'0 0.1
2018-Jun-18 05:52N 01°14' E 103°53'0 0.0
2018-Jun-18 05:25N 01°14' E 103°53'0 0.0
2018-Jun-18 04:56N 01°14' E 103°53'0 0.2
2018-Jun-18 04:25N 01°14' E 103°53'0 0.1
2018-Jun-18 03:52N 01°14' E 103°53'0 0.5
2018-Jun-18 03:30N 01°14' E 103°53'1 2.6
2018-Jun-18 03:00N 01°15' E 103°54'5 9.5
2018-Jun-18 02:30N 01°16' E 103°59'4 7.8
2018-Jun-18 02:00N 01°16' E 104°03'612.5
2018-Jun-18 01:30N 01°17' E 104°09'712.7
2018-Jun-18 00:57N 01°18' E 104°16'611.7
2018-Jun-18 00:27N 01°20' E 104°21'510.7
2018-Jun-17 23:56N 01°24' E 104°25'510.8
2018-Jun-17 23:29N 01°27' E 104°29'610.7
2018-Jun-17 22:55N 01°31' E 104°34'  
Track history (hours):
 
Tides and Currents Weather Stations Pressure Air Temp Water Temp Dewpoint Dewpoint Depression Visibility Wind Speed Wind Dir Waves Ship Positions

Eurofaith

Last reported at 2018-Jun-18 22:41 UTC. Time now 2018-Jul-21 03:50 UTC.
Position N 01°40' E 102°54'.
Warning: this ship's position is 32 days out of date.

Length 269 m; draft 9.2 m.

Type: Tanker. MMSI: 636017877.

Date/timePositionNaut miles runAvg speedWind from/ knotsBaromVisibWave heightAir tempDewpointWater temp
2018-Jun-18 22:41N 01°40' E 102°54'414.2
2018-Jun-18 22:23N 01°38' E 102°58'1114.2
2018-Jun-18 21:37N 01°31' E 103°07'314.0
2018-Jun-18 21:25N 01°29' E 103°09'714.5
2018-Jun-18 20:56N 01°25' E 103°14'614.1
2018-Jun-18 20:30N 01°20' E 103°18'612.5
2018-Jun-18 19:59N 01°16' E 103°23'611.8
2018-Jun-18 19:30N 01°13' E 103°28'611.8
2018-Jun-18 19:00N 01°12' E 103°34'611.6
2018-Jun-18 18:31N 01°11' E 103°39'611.9
2018-Jun-18 17:59N 01°09' E 103°45'613.2
2018-Jun-18 17:30N 01°12' E 103°51'4 8.3
2018-Jun-18 17:00N 01°15' E 103°54'1 2.0
2018-Jun-18 16:29N 01°14' E 103°53'0 0.0
2018-Jun-18 15:59N 01°14' E 103°53'0 0.0
2018-Jun-18 15:19N 01°14' E 103°53'0 0.0
2018-Jun-18 14:56N 01°14' E 103°53'0 0.1
2018-Jun-18 14:26N 01°14' E 103°53'0 0.1
2018-Jun-18 13:58N 01°14' E 103°53'0 0.0
2018-Jun-18 13:29N 01°14' E 103°53'0 0.0
2018-Jun-18 12:53N 01°14' E 103°53'0 0.1
2018-Jun-18 12:29N 01°15' E 103°53'0 0.0
2018-Jun-18 11:59N 01°15' E 103°53'0 0.0
2018-Jun-18 11:23N 01°15' E 103°53'0 0.0
2018-Jun-18 10:56N 01°15' E 103°53'0 0.0
2018-Jun-18 10:29N 01°15' E 103°53'0 0.1
2018-Jun-18 09:59N 01°14' E 103°53'0 0.1
2018-Jun-18 09:26N 01°14' E 103°53'0 0.0
2018-Jun-18 08:52N 01°14' E 103°53'0 0.1
2018-Jun-18 08:23N 01°15' E 103°53'0 0.0
2018-Jun-18 07:56N 01°15' E 103°53'0 0.0
2018-Jun-18 07:29N 01°15' E 103°53'0 0.2
2018-Jun-18 06:58N 01°14' E 103°53'0 0.1
2018-Jun-18 06:25N 01°14' E 103°53'0 0.1
2018-Jun-18 05:52N 01°14' E 103°53'0 0.0
2018-Jun-18 05:25N 01°14' E 103°53'0 0.0
2018-Jun-18 04:56N 01°14' E 103°53'0 0.2
2018-Jun-18 04:25N 01°14' E 103°53'0 0.1
2018-Jun-18 03:52N 01°14' E 103°53'0 0.5
2018-Jun-18 03:30N 01°14' E 103°53'1 2.6
2018-Jun-18 03:00N 01°15' E 103°54'5 9.5
2018-Jun-18 02:30N 01°16' E 103°59'4 7.8
2018-Jun-18 02:00N 01°16' E 104°03'612.5
2018-Jun-18 01:30N 01°17' E 104°09'712.7
2018-Jun-18 00:57N 01°18' E 104°16'611.7
2018-Jun-18 00:27N 01°20' E 104°21'510.7
2018-Jun-17 23:56N 01°24' E 104°25'510.8
2018-Jun-17 23:29N 01°27' E 104°29'610.7
2018-Jun-17 22:55N 01°31' E 104°34'  

Dump ship's entire track history